Time;durP1;ratioP1;P1;durP2;ratioP2;P2;SDS_P1;SDS_P2;PMS_P1;PMS_P2;Temp;Humidity;BMP_temperature;BMP_pressure;BME280_temperature;BME280_humidity;BME280_pressure;Samples;Min_cycle;Max_cycle;Signal;HPM_P1;HPM_P2
2023/04/29 00:01:47;;;;;;;13.37;9.67;;;7.80;99.90;;;;;;5007151;28;20229;-77
2023/04/29 00:04:14;;;;;;;14.17;9.43;;;7.80;99.90;;;;;;4992633;28;20234;-77
2023/04/29 00:06:41;;;;;;;15.87;9.93;;;7.80;99.90;;;;;;5003320;28;20229;-77
2023/04/29 00:09:08;;;;;;;15.67;10.40;;;7.80;99.90;;;;;;5006943;28;20228;-76
2023/04/29 00:11:35;;;;;;;13.60;9.80;;;7.70;99.90;;;;;;5006786;28;20283;-76
2023/04/29 00:14:01;;;;;;;14.20;10.53;;;7.80;99.90;;;;;;5000045;28;20225;-76
2023/04/29 00:16:29;;;;;;;11.70;10.30;;;7.80;99.90;;;;;;5005424;28;20303;-76
2023/04/29 00:18:56;;;;;;;12.30;9.97;;;7.70;99.90;;;;;;5012272;28;20227;-76
2023/04/29 00:21:23;;;;;;;14.90;10.57;;;7.70;99.90;;;;;;5002615;28;20762;-76
2023/04/29 00:23:50;;;;;;;15.80;10.57;;;7.70;99.90;;;;;;4995829;28;20907;-77
2023/04/29 00:26:16;;;;;;;13.33;9.83;;;7.70;99.90;;;;;;4985411;28;20230;-76
2023/04/29 00:28:46;;;;;;;12.53;10.40;;;7.70;99.90;;;;;;4985243;28;20238;-77
2023/04/29 00:31:13;;;;;;;12.27;10.37;;;7.70;99.90;;;;;;5004274;28;20718;-77
2023/04/29 00:33:41;;;;;;;14.17;10.10;;;7.80;99.90;;;;;;5001980;28;20263;-76
2023/04/29 00:36:08;;;;;;;14.37;10.63;;;7.70;99.90;;;;;;5008716;28;20648;-77
2023/04/29 00:38:35;;;;;;;14.93;10.77;;;7.70;99.90;;;;;;4998256;28;20220;-77
2023/04/29 00:41:02;;;;;;;13.67;10.63;;;7.70;99.90;;;;;;5003629;28;20224;-76
2023/04/29 00:43:29;;;;;;;15.00;10.73;;;7.70;99.90;;;;;;4994166;28;20969;-77
2023/04/29 00:45:56;;;;;;;15.63;10.67;;;7.70;99.90;;;;;;5003110;28;20595;-77
2023/04/29 00:48:23;;;;;;;13.40;10.83;;;7.70;99.90;;;;;;4995050;28;20221;-77
2023/04/29 00:50:51;;;;;;;13.10;10.10;;;7.70;99.90;;;;;;5017511;28;20224;-77
2023/04/29 00:53:18;;;;;;;13.10;10.43;;;7.70;99.90;;;;;;4991250;28;20248;-77
2023/04/29 00:55:47;;;;;;;14.13;10.93;;;7.70;99.90;;;;;;5001429;28;20307;-77
2023/04/29 00:58:14;;;;;;;17.90;11.20;;;7.70;99.90;;;;;;5006914;28;20665;-76
2023/04/29 01:00:42;;;;;;;16.37;11.27;;;7.70;99.90;;;;;;5012731;28;20255;-77
2023/04/29 01:03:10;;;;;;;15.20;11.07;;;7.70;99.90;;;;;;5005835;28;20232;-77
2023/04/29 01:05:37;;;;;;;16.47;11.57;;;7.70;99.90;;;;;;5005545;28;20229;-77
2023/04/29 01:08:16;;;;;;;14.80;11.63;;;7.70;99.90;;;;;;4998472;28;20232;-77
2023/04/29 01:10:52;;;;;;;16.27;12.83;;;7.70;99.90;;;;;;5014472;28;20227;-77
2023/04/29 01:13:30;;;;;;;13.93;11.60;;;7.70;99.90;;;;;;5007912;28;20248;-77
2023/04/29 01:16:02;;;;;;;16.33;12.57;;;7.70;99.90;;;;;;4999702;28;20221;-76
2023/04/29 01:18:33;;;;;;;17.20;12.93;;;7.70;99.90;;;;;;4984070;28;20243;-77
2023/04/29 01:21:00;;;;;;;17.37;13.10;;;7.70;99.90;;;;;;5000384;28;20339;-77
2023/04/29 01:23:29;;;;;;;19.00;12.00;;;7.70;99.90;;;;;;5001197;28;20224;-77
2023/04/29 01:25:58;;;;;;;18.20;12.90;;;7.70;99.90;;;;;;5001631;28;20216;-77
2023/04/29 01:28:51;;;;;;;17.87;13.77;;;7.70;99.90;;;;;;5003936;28;20239;-76
2023/04/29 01:31:21;;;;;;;18.60;13.13;;;7.60;99.90;;;;;;4986424;28;20224;-77
2023/04/29 01:33:56;;;;;;;16.67;12.83;;;7.70;99.90;;;;;;4984182;28;20255;-77
2023/04/29 01:36:31;;;;;;;18.23;13.20;;;7.70;99.90;;;;;;5006939;28;20238;-77
2023/04/29 01:39:07;;;;;;;17.60;13.67;;;7.60;99.90;;;;;;4992854;28;20897;-77
2023/04/29 01:41:43;;;;;;;15.60;13.27;;;7.60;99.90;;;;;;4994601;28;20576;-77
2023/04/29 01:44:24;;;;;;;18.37;13.87;;;7.60;99.90;;;;;;4999606;28;20264;-77
2023/04/29 01:46:53;;;;;;;18.60;14.53;;;7.70;99.90;;;;;;4984174;28;20224;-77
2023/04/29 01:49:21;;;;;;;19.50;14.27;;;7.60;99.90;;;;;;4989656;28;20232;-77
2023/04/29 01:51:48;;;;;;;19.60;14.63;;;7.60;99.90;;;;;;5001670;28;20227;-77
2023/04/29 01:54:16;;;;;;;20.20;14.87;;;7.70;99.90;;;;;;4983370;28;20232;-76
2023/04/29 01:56:44;;;;;;;16.83;14.10;;;7.60;99.90;;;;;;4982607;28;20247;-76
2023/04/29 01:59:35;;;;;;;16.97;13.87;;;7.60;99.90;;;;;;4990581;28;20220;-76
2023/04/29 02:02:19;;;;;;;21.97;14.50;;;7.60;99.90;;;;;;4977236;28;20220;-77
2023/04/29 02:04:52;;;;;;;19.23;14.27;;;7.60;99.90;;;;;;5000211;28;20215;-77
2023/04/29 02:07:19;;;;;;;18.47;14.90;;;7.60;99.90;;;;;;5002030;28;20293;-77
2023/04/29 02:09:48;;;;;;;16.77;14.93;;;7.60;99.90;;;;;;4992912;28;20228;-77
2023/04/29 02:12:14;;;;;;;16.97;13.67;;;7.60;99.90;;;;;;4990832;28;20884;-78
2023/04/29 02:14:42;;;;;;;21.10;14.83;;;7.60;99.90;;;;;;5009720;28;20272;-77
2023/04/29 02:17:09;;;;;;;19.73;14.37;;;7.60;99.90;;;;;;5002927;28;20739;-77
2023/04/29 02:19:36;;;;;;;20.67;14.27;;;7.60;99.90;;;;;;5005907;28;20233;-77
2023/04/29 02:22:03;;;;;;;19.53;13.83;;;7.60;99.90;;;;;;5005876;28;20315;-77
2023/04/29 02:24:30;;;;;;;19.00;13.57;;;7.60;99.90;;;;;;5003128;28;20622;-77
2023/04/29 02:26:58;;;;;;;16.53;12.97;;;7.60;99.90;;;;;;5002636;28;20250;-77
2023/04/29 02:29:28;;;;;;;17.03;13.83;;;7.60;99.90;;;;;;4986668;28;20239;-77
2023/04/29 02:31:55;;;;;;;16.83;13.43;;;7.60;99.90;;;;;;5009401;28;20235;-77
2023/04/29 02:34:22;;;;;;;18.20;13.30;;;7.60;99.90;;;;;;4996698;28;20311;-77
2023/04/29 02:36:49;;;;;;;15.23;12.97;;;7.60;99.90;;;;;;5012239;28;20228;-76
2023/04/29 02:39:16;;;;;;;18.87;13.80;;;7.60;99.90;;;;;;5001405;28;20224;-76
2023/04/29 02:41:43;;;;;;;18.53;12.97;;;7.60;99.90;;;;;;5003799;28;20228;-77
2023/04/29 02:44:12;;;;;;;18.00;14.07;;;7.60;99.90;;;;;;4986954;28;20702;-77
2023/04/29 02:46:44;;;;;;;17.47;13.63;;;7.60;99.90;;;;;;5001994;28;20754;-77
2023/04/29 02:49:11;;;;;;;18.93;13.67;;;7.60;99.90;;;;;;5011732;28;21062;-76
2023/04/29 02:51:38;;;;;;;15.93;13.23;;;7.60;99.90;;;;;;4992926;28;20726;-76
2023/04/29 02:54:05;;;;;;;18.00;13.97;;;7.60;99.90;;;;;;4990812;28;20260;-77
2023/04/29 02:56:32;;;;;;;17.13;13.20;;;7.60;99.90;;;;;;5002696;28;20290;-77
2023/04/29 02:58:59;;;;;;;19.60;13.40;;;7.60;99.90;;;;;;4999379;28;20243;-77
2023/04/29 03:01:27;;;;;;;17.10;13.57;;;7.60;99.90;;;;;;5009339;28;20232;-76
2023/04/29 03:03:54;;;;;;;17.70;14.40;;;7.60;99.90;;;;;;5000580;28;20233;-77
2023/04/29 03:06:21;;;;;;;21.97;15.00;;;7.60;99.90;;;;;;5007883;28;20216;-77
2023/04/29 03:08:51;;;;;;;18.37;14.43;;;7.60;99.90;;;;;;4985947;28;20316;-77
2023/04/29 03:11:18;;;;;;;18.73;13.97;;;7.60;99.90;;;;;;5009438;28;20319;-77
2023/04/29 03:13:46;;;;;;;20.90;14.60;;;7.60;99.90;;;;;;5006303;28;20221;-77
2023/04/29 03:16:15;;;;;;;17.67;14.03;;;7.60;99.90;;;;;;4986064;28;20230;-77
2023/04/29 03:18:44;;;;;;;21.50;15.53;;;7.50;99.90;;;;;;5002073;28;20286;-77
2023/04/29 03:21:11;;;;;;;20.93;14.40;;;7.50;99.90;;;;;;4981823;28;20220;-77
2023/04/29 03:23:39;;;;;;;20.53;14.47;;;7.50;99.90;;;;;;4989994;28;20239;-77
2023/04/29 03:26:07;;;;;;;18.43;14.30;;;7.50;99.90;;;;;;5000613;28;20224;-77
2023/04/29 03:28:34;;;;;;;20.37;14.80;;;7.50;99.90;;;;;;4992721;28;20317;-77
2023/04/29 03:31:01;;;;;;;21.60;15.30;;;7.50;99.90;;;;;;4993338;28;20219;-78
2023/04/29 03:33:28;;;;;;;23.43;16.53;;;7.40;99.90;;;;;;5003530;28;20221;-77
2023/04/29 03:35:56;;;;;;;21.20;14.80;;;7.40;99.90;;;;;;5009660;28;20223;-78
2023/04/29 03:38:34;;;;;;;19.23;14.60;;;7.40;99.90;;;;;;5004303;28;20230;-77
2023/04/29 03:41:02;;;;;;;18.63;14.60;;;7.40;99.90;;;;;;5007691;28;20226;-78
2023/04/29 03:43:29;;;;;;;16.77;14.53;;;7.40;99.90;;;;;;5005990;28;20233;-77
2023/04/29 03:45:55;;;;;;;20.90;15.27;;;7.40;99.90;;;;;;4987416;28;20311;-77
2023/04/29 03:48:23;;;;;;;22.60;15.50;;;7.40;99.90;;;;;;5005887;28;20714;-77
2023/04/29 03:50:52;;;;;;;20.80;15.80;;;7.30;99.90;;;;;;5008231;28;20852;-77
2023/04/29 03:53:20;;;;;;;19.70;15.27;;;7.30;99.90;;;;;;5010627;28;20227;-76
2023/04/29 03:55:47;;;;;;;22.03;15.77;;;7.30;99.90;;;;;;4999316;28;20217;-77
2023/04/29 03:58:15;;;;;;;19.00;14.73;;;7.30;99.90;;;;;;4990474;28;20304;-76
2023/04/29 04:00:43;;;;;;;24.63;15.43;;;7.20;99.90;;;;;;4988283;28;20984;-76
2023/04/29 04:03:15;;;;;;;21.00;15.07;;;7.20;99.90;;;;;;5004261;28;20256;-76
2023/04/29 04:05:42;;;;;;;21.77;15.57;;;7.20;99.90;;;;;;4987729;28;20223;-77
2023/04/29 04:08:12;;;;;;;19.20;15.70;;;7.20;99.90;;;;;;5010150;28;20278;-77
2023/04/29 04:11:01;;;;;;;19.30;13.77;;;7.20;99.90;;;;;;4995997;28;20219;-77
2023/04/29 04:13:42;;;;;;;18.70;14.70;;;7.10;99.90;;;;;;5009993;28;20936;-77
2023/04/29 04:16:10;;;;;;;17.83;14.73;;;7.10;99.90;;;;;;4987956;28;20307;-77
2023/04/29 04:18:37;;;;;;;19.47;15.23;;;7.10;99.90;;;;;;5002649;28;20298;-77
2023/04/29 04:21:08;;;;;;;19.23;14.70;;;7.10;99.90;;;;;;4987165;28;20225;-77
2023/04/29 04:23:36;;;;;;;19.60;14.17;;;7.00;99.90;;;;;;4986533;28;20231;-77
2023/04/29 04:26:05;;;;;;;19.20;15.00;;;7.10;99.90;;;;;;4984296;28;20228;-77
2023/04/29 04:28:58;;;;;;;21.57;16.27;;;7.10;99.90;;;;;;4990323;28;20233;-76
2023/04/29 04:31:40;;;;;;;19.80;14.60;;;7.10;99.90;;;;;;5005273;28;20767;-76
2023/04/29 04:34:08;;;;;;;21.10;16.70;;;7.20;99.90;;;;;;5005863;28;20231;-76
2023/04/29 04:36:35;;;;;;;19.93;15.40;;;7.10;99.90;;;;;;4990853;28;20284;-77
2023/04/29 04:39:02;;;;;;;20.23;16.30;;;7.10;99.90;;;;;;5006144;28;20224;-77
2023/04/29 04:41:30;;;;;;;20.37;16.50;;;7.10;99.90;;;;;;4993446;28;20277;-78
2023/04/29 04:43:58;;;;;;;18.47;15.20;;;7.10;99.90;;;;;;5002402;28;20227;-78
2023/04/29 04:46:45;;;;;;;19.30;15.10;;;7.10;99.90;;;;;;5014174;28;20217;-78
2023/04/29 04:49:15;;;;;;;17.93;14.73;;;7.10;99.90;;;;;;5007870;28;20216;-78
2023/04/29 04:51:48;;;;;;;17.33;14.20;;;7.10;99.90;;;;;;5009676;28;20228;-78
2023/04/29 04:54:15;;;;;;;20.13;15.63;;;7.10;99.90;;;;;;4990955;28;20282;-78
2023/04/29 04:56:43;;;;;;;19.87;14.83;;;7.10;99.90;;;;;;5010794;28;20239;-78
2023/04/29 04:59:10;;;;;;;20.67;16.17;;;7.10;99.90;;;;;;4990089;28;20314;-78
2023/04/29 05:01:39;;;;;;;18.67;12.97;;;7.10;99.90;;;;;;5008506;28;20292;-78
2023/04/29 05:04:06;;;;;;;18.60;15.17;;;7.10;99.90;;;;;;4990769;28;20259;-78
2023/04/29 05:06:33;;;;;;;19.07;14.23;;;7.10;99.90;;;;;;5020258;28;20260;-77
2023/04/29 05:09:00;;;;;;;18.20;14.47;;;7.20;99.90;;;;;;4989769;28;20222;-79
2023/04/29 05:11:27;;;;;;;26.13;18.70;;;7.20;99.90;;;;;;4998032;28;20251;-77
2023/04/29 05:14:13;;;;;;;19.93;13.87;;;7.20;99.90;;;;;;4988956;28;20231;-77
2023/04/29 05:16:40;;;;;;;39.73;28.93;;;7.20;99.90;;;;;;5006375;28;20338;-77
2023/04/29 05:19:08;;;;;;;21.33;14.17;;;7.30;99.90;;;;;;5003103;28;20240;-77
2023/04/29 05:21:37;;;;;;;20.17;14.73;;;7.30;99.90;;;;;;5002664;28;20224;-77
2023/04/29 05:24:05;;;;;;;19.10;14.20;;;7.30;99.90;;;;;;5000612;28;20228;-77
2023/04/29 05:26:31;;;;;;;21.93;15.23;;;7.40;99.90;;;;;;5005846;28;20270;-76
2023/04/29 05:29:01;;;;;;;38.00;26.30;;;7.30;99.90;;;;;;4986069;28;20228;-77
2023/04/29 05:31:32;;;;;;;30.53;21.47;;;7.40;99.90;;;;;;5004731;28;20225;-76
2023/04/29 05:34:02;;;;;;;15.03;13.07;;;7.40;99.90;;;;;;4984643;28;20247;-77
2023/04/29 05:36:29;;;;;;;15.87;12.47;;;7.40;99.90;;;;;;5006855;28;20229;-77
2023/04/29 05:38:57;;;;;;;15.27;11.03;;;7.40;99.90;;;;;;5014995;28;20672;-77
2023/04/29 05:41:24;;;;;;;15.60;12.03;;;7.40;99.90;;;;;;4990477;28;20978;-77
2023/04/29 05:44:11;;;;;;;13.37;11.03;;;7.40;99.90;;;;;;5001601;28;20219;-77
2023/04/29 05:46:40;;;;;;;17.80;11.70;;;7.40;99.90;;;;;;5009079;28;21040;-76
2023/04/29 05:49:07;;;;;;;16.10;10.47;;;7.50;99.90;;;;;;5004767;28;20953;-77
2023/04/29 05:51:33;;;;;;;27.97;21.70;;;7.50;99.90;;;;;;5006713;28;20314;-77
2023/04/29 05:54:00;;;;;;;13.13;11.13;;;7.50;99.90;;;;;;4999387;28;20937;-77
2023/04/29 05:56:29;;;;;;;15.43;10.90;;;7.50;99.90;;;;;;4999889;28;20231;-78
2023/04/29 05:58:56;;;;;;;13.57;10.20;;;7.60;99.90;;;;;;5006183;28;20745;-78
2023/04/29 06:01:23;;;;;;;12.90;9.40;;;7.60;99.90;;;;;;4977331;28;20232;-78
2023/04/29 06:03:51;;;;;;;12.30;9.47;;;7.70;99.90;;;;;;4980403;28;20292;-78
2023/04/29 06:06:33;;;;;;;12.90;9.60;;;7.80;99.90;;;;;;4993010;28;20246;-80
2023/04/29 06:09:06;;;;;;;13.90;9.60;;;7.80;99.90;;;;;;5001160;28;20260;-79
2023/04/29 06:11:33;;;;;;;10.90;8.70;;;7.80;99.90;;;;;;5005071;28;20602;-79
2023/04/29 06:14:02;;;;;;;12.50;8.60;;;7.90;99.90;;;;;;5007455;28;20805;-79
2023/04/29 06:16:29;;;;;;;13.10;9.13;;;8.00;99.90;;;;;;5003826;28;20241;-80
2023/04/29 06:18:57;;;;;;;15.43;8.90;;;8.10;99.90;;;;;;4987188;28;20221;-78
2023/04/29 06:21:24;;;;;;;14.07;9.03;;;8.20;99.90;;;;;;4988608;28;20237;-78
2023/04/29 06:23:51;;;;;;;15.20;8.93;;;8.30;99.90;;;;;;5009090;28;20240;-79
2023/04/29 06:26:19;;;;;;;12.47;8.77;;;8.40;99.90;;;;;;5010377;28;20280;-79
2023/04/29 06:28:47;;;;;;;11.60;8.27;;;8.60;99.90;;;;;;5016201;28;20234;-79
2023/04/29 06:31:14;;;;;;;12.23;7.87;;;8.80;99.90;;;;;;5007034;28;20795;-79
2023/04/29 06:33:42;;;;;;;12.90;7.70;;;8.90;99.90;;;;;;5005649;28;20220;-78
2023/04/29 06:36:10;;;;;;;11.03;8.10;;;9.00;99.90;;;;;;4996692;28;20235;-81
2023/04/29 06:38:55;;;;;;;12.67;8.00;;;9.20;99.90;;;;;;5001266;28;20310;-79
2023/04/29 06:41:31;;;;;;;10.57;7.77;;;9.30;99.90;;;;;;5027106;28;20252;-78
2023/04/29 06:44:18;;;;;;;17.70;9.30;;;9.40;99.90;;;;;;5027062;28;20239;-78
2023/04/29 06:47:11;;;;;;;11.03;7.60;;;9.50;99.90;;;;;;5010738;28;20600;-78
2023/04/29 06:50:04;;;;;;;21.70;13.50;;;9.60;99.90;;;;;;5022654;28;20603;-78
2023/04/29 06:52:32;;;;;;;35.77;21.13;;;9.60;99.90;;;;;;5024474;28;20748;-78
2023/04/29 06:54:59;;;;;;;14.00;9.40;;;9.70;99.90;;;;;;5009779;28;20224;-80
2023/04/29 06:57:25;;;;;;;18.53;12.93;;;9.70;99.90;;;;;;5020533;28;20227;-81
2023/04/29 06:59:52;;;;;;;14.70;10.00;;;9.80;99.90;;;;;;4993996;28;20264;-81
2023/04/29 07:02:19;;;;;;;12.90;8.43;;;9.80;99.90;;;;;;5009012;28;20226;-80
2023/04/29 07:04:48;;;;;;;9.10;7.37;;;9.90;99.90;;;;;;4998021;28;20338;-81
2023/04/29 07:07:16;;;;;;;9.20;7.57;;;9.90;99.90;;;;;;5003320;28;20227;-81
2023/04/29 07:09:44;;;;;;;57.23;33.93;;;10.00;99.90;;;;;;4999626;28;20236;-81
2023/04/29 07:12:11;;;;;;;17.17;10.57;;;10.20;99.90;;;;;;4996783;28;20221;-81
2023/04/29 07:14:37;;;;;;;9.80;7.53;;;10.50;99.90;;;;;;5025555;28;20854;-81
2023/04/29 07:17:04;;;;;;;18.43;9.80;;;10.90;99.90;;;;;;5019442;28;20630;-82
2023/04/29 07:19:31;;;;;;;9.90;7.03;;;11.30;99.90;;;;;;5027935;28;20220;-81
2023/04/29 07:21:58;;;;;;;10.83;7.37;;;11.70;99.90;;;;;;5028911;28;20330;-81
2023/04/29 07:24:25;;;;;;;9.07;6.63;;;12.10;99.90;;;;;;5013271;28;20577;-82
2023/04/29 07:26:53;;;;;;;13.67;8.30;;;12.50;99.90;;;;;;5023743;28;21433;-81
2023/04/29 07:29:20;;;;;;;17.70;10.63;;;13.00;99.90;;;;;;5023901;28;20227;-81
2023/04/29 07:31:47;;;;;;;12.83;6.57;;;13.50;99.90;;;;;;5008313;28;20247;-82
2023/04/29 07:34:13;;;;;;;30.27;17.27;;;14.00;99.90;;;;;;5005551;28;20956;-81
2023/04/29 07:36:40;;;;;;;13.47;8.10;;;14.40;99.90;;;;;;4990878;28;20310;-80
2023/04/29 07:39:07;;;;;;;9.97;6.70;;;14.80;99.90;;;;;;5002029;28;20288;-79
2023/04/29 07:41:33;;;;;;;8.73;5.77;;;15.00;99.90;;;;;;4995571;28;20229;-80
2023/04/29 07:44:01;;;;;;;6.63;5.50;;;15.40;99.90;;;;;;4996034;28;20605;-80
2023/04/29 07:46:28;;;;;;;8.13;6.10;;;15.70;99.90;;;;;;4993107;28;20715;-80
2023/04/29 07:48:57;;;;;;;14.00;9.83;;;16.10;99.90;;;;;;4992256;28;20846;-80
2023/04/29 07:51:23;;;;;;;13.05;9.25;;;16.50;99.90;;;;;;5012916;28;20226;-80
2023/04/29 07:53:50;;;;;;;10.07;6.07;;;16.80;99.90;;;;;;4996428;28;20233;-80
2023/04/29 07:56:17;;;;;;;8.25;5.97;;;17.20;99.90;;;;;;5009297;28;20231;-80
2023/04/29 07:58:45;;;;;;;5.82;5.07;;;17.40;99.60;;;;;;5007771;28;20293;-80
2023/04/29 08:01:14;;;;;;;8.38;5.75;;;17.60;99.30;;;;;;5011983;28;20217;-80
2023/04/29 08:03:41;;;;;;;7.53;5.50;;;17.90;97.50;;;;;;5006353;28;20229;-80
2023/04/29 08:06:08;;;;;;;7.65;5.50;;;18.10;97.60;;;;;;4996473;28;20224;-80
2023/04/29 08:08:35;;;;;;;15.23;13.53;;;18.20;97.40;;;;;;5014451;28;20629;-80
2023/04/29 08:11:01;;;;;;;10.98;8.07;;;18.30;97.00;;;;;;4987962;28;20263;-80
2023/04/29 08:13:28;;;;;;;8.57;5.60;;;18.30;96.50;;;;;;5010155;28;20229;-80
2023/04/29 08:15:55;;;;;;;8.13;5.80;;;18.40;95.20;;;;;;5001217;28;20233;-80
2023/04/29 08:18:23;;;;;;;8.52;5.82;;;18.40;95.30;;;;;;5014312;28;20221;-80
2023/04/29 08:20:50;;;;;;;6.57;5.10;;;18.50;95.20;;;;;;4993473;28;20221;-80
2023/04/29 08:23:17;;;;;;;9.70;7.60;;;18.50;94.90;;;;;;5015253;28;20649;-80
2023/04/29 08:25:44;;;;;;;7.85;5.68;;;18.60;94.90;;;;;;5009063;28;20699;-80
2023/04/29 08:28:11;;;;;;;7.10;5.35;;;18.80;94.60;;;;;;5009743;28;20252;-81
2023/04/29 08:30:39;;;;;;;6.35;5.22;;;18.90;94.70;;;;;;5005859;28;20222;-80
2023/04/29 08:33:07;;;;;;;10.50;7.63;;;19.10;93.90;;;;;;5011000;28;20287;-80
2023/04/29 08:35:36;;;;;;;7.50;5.28;;;19.30;93.50;;;;;;4989156;28;20308;-80
2023/04/29 08:38:05;;;;;;;7.18;5.30;;;19.40;93.60;;;;;;5009119;28;20229;-80
2023/04/29 08:40:34;;;;;;;6.45;4.82;;;19.60;93.00;;;;;;5008346;28;20718;-80
2023/04/29 08:43:02;;;;;;;6.80;4.97;;;19.70;92.80;;;;;;5007079;28;20894;-80
2023/04/29 08:45:31;;;;;;;7.45;4.90;;;20.00;92.40;;;;;;4997747;28;20222;-80
2023/04/29 08:47:58;;;;;;;5.70;4.75;;;20.10;92.20;;;;;;4993339;28;20739;-80
2023/04/29 08:50:26;;;;;;;6.00;5.05;;;20.30;90.50;;;;;;5016139;28;20229;-80
2023/04/29 08:52:55;;;;;;;5.25;4.45;;;20.40;90.80;;;;;;5006856;28;20413;-80
2023/04/29 08:55:22;;;;;;;7.25;5.00;;;20.40;90.00;;;;;;5008596;28;20272;-80
2023/04/29 08:57:50;;;;;;;6.40;4.93;;;20.40;90.30;;;;;;5011303;28;20731;-80
2023/04/29 09:00:18;;;;;;;6.05;4.65;;;20.40;90.20;;;;;;4996036;28;20225;-80
2023/04/29 09:02:48;;;;;;;6.20;4.60;;;20.40;89.50;;;;;;4993725;28;20309;-80
2023/04/29 09:05:16;;;;;;;6.38;4.63;;;20.50;87.30;;;;;;4991466;28;20221;-80
2023/04/29 09:07:43;;;;;;;5.35;4.03;;;20.70;89.20;;;;;;5005791;28;20225;-79
2023/04/29 09:10:12;;;;;;;6.30;4.55;;;20.80;87.90;;;;;;5018221;28;20227;-80
2023/04/29 09:12:38;;;;;;;5.82;3.95;;;20.90;87.10;;;;;;5007697;28;20369;-80
2023/04/29 09:15:06;;;;;;;4.80;4.30;;;21.10;87.50;;;;;;5007883;28;20217;-80
2023/04/29 09:17:43;;;;;;;7.30;4.78;;;21.30;87.00;;;;;;5008160;28;20221;-80
2023/04/29 09:20:27;;;;;;;6.63;4.70;;;21.50;84.10;;;;;;5008664;28;20228;-80
2023/04/29 09:22:56;;;;;;;6.70;4.90;;;21.60;82.00;;;;;;5013125;28;20232;-80
2023/04/29 09:25:26;;;;;;;6.82;4.70;;;21.70;81.40;;;;;;5016689;28;20216;-80
2023/04/29 09:27:52;;;;;;;6.13;4.65;;;21.70;80.50;;;;;;5004300;28;20240;-80
2023/04/29 09:30:20;;;;;;;7.72;4.78;;;21.60;80.00;;;;;;5005741;28;20271;-80
2023/04/29 09:33:03;;;;;;;6.57;4.70;;;21.40;79.80;;;;;;5003671;28;20237;-80
2023/04/29 09:35:30;;;;;;;6.18;4.70;;;21.30;79.70;;;;;;5016544;28;20229;-80
2023/04/29 09:38:09;;;;;;;6.35;5.18;;;21.10;80.10;;;;;;5007308;28;20226;-80
2023/04/29 09:40:38;;;;;;;6.22;4.68;;;21.00;78.80;;;;;;5008061;28;20259;-80
2023/04/29 09:43:13;;;;;;;7.90;4.97;;;21.00;81.20;;;;;;4992084;28;20232;-80
2023/04/29 09:45:41;;;;;;;7.07;5.40;;;21.00;79.70;;;;;;5012368;28;20220;-80
2023/04/29 09:48:10;;;;;;;7.78;5.28;;;21.20;80.00;;;;;;5002101;28;20615;-80
2023/04/29 09:50:37;;;;;;;13.77;9.63;;;21.20;81.20;;;;;;5011666;28;20233;-81
2023/04/29 09:53:04;;;;;;;6.93;5.47;;;21.30;82.30;;;;;;4991652;28;20231;-80
2023/04/29 09:55:31;;;;;;;7.70;5.50;;;21.40;81.70;;;;;;5014104;28;20221;-80
2023/04/29 09:58:00;;;;;;;7.30;5.50;;;21.60;80.90;;;;;;5015468;28;20320;-80
2023/04/29 10:00:30;;;;;;;8.52;5.80;;;21.70;80.70;;;;;;4990016;28;20248;-80
2023/04/29 10:02:59;;;;;;;6.80;5.30;;;21.80;80.30;;;;;;5012177;28;20235;-80
2023/04/29 10:05:29;;;;;;;6.80;5.40;;;22.00;80.20;;;;;;5013709;28;20223;-80
2023/04/29 10:07:57;;;;;;;7.20;5.85;;;22.00;79.40;;;;;;5012775;28;20221;-80
2023/04/29 10:10:24;;;;;;;5.88;5.15;;;22.20;78.40;;;;;;5011718;28;20272;-80
2023/04/29 10:12:53;;;;;;;7.28;5.63;;;22.30;78.60;;;;;;5003089;28;20258;-80
2023/04/29 10:15:29;;;;;;;5.68;5.07;;;22.30;77.70;;;;;;4997053;28;20217;-80
2023/04/29 10:18:00;;;;;;;6.93;5.03;;;22.40;77.20;;;;;;5008895;28;20313;-80
2023/04/29 10:20:29;;;;;;;5.72;4.90;;;22.60;77.20;;;;;;5005306;28;20235;-80
2023/04/29 10:22:58;;;;;;;6.63;4.80;;;22.80;77.20;;;;;;5010425;28;20233;-80
2023/04/29 10:25:26;;;;;;;5.57;5.05;;;22.90;75.80;;;;;;5006044;28;20262;-80
2023/04/29 10:27:55;;;;;;;5.75;4.65;;;23.00;76.50;;;;;;5005019;28;21307;-80
2023/04/29 10:30:24;;;;;;;7.85;4.72;;;23.10;74.10;;;;;;5015520;28;20283;-81
2023/04/29 10:32:51;;;;;;;5.72;4.47;;;23.20;72.40;;;;;;5008222;28;20244;-80
2023/04/29 10:35:21;;;;;;;6.30;5.05;;;23.30;72.90;;;;;;5011001;28;20222;-80
2023/04/29 10:37:48;;;;;;;7.13;4.68;;;23.40;70.60;;;;;;5006809;28;20328;-81
2023/04/29 10:40:19;;;;;;;6.00;4.20;;;23.30;70.10;;;;;;5012116;28;20244;-81
2023/04/29 10:42:48;;;;;;;5.38;4.28;;;23.20;69.50;;;;;;5012569;28;20228;-80
2023/04/29 10:45:25;;;;;;;5.72;3.95;;;23.10;66.60;;;;;;4992575;28;20212;-80
2023/04/29 10:48:15;;;;;;;6.85;4.43;;;22.90;66.20;;;;;;5017983;28;20690;-85
2023/04/29 10:51:00;;;;;;;6.20;4.40;;;22.70;67.20;;;;;;5004746;28;20308;-81
2023/04/29 10:53:28;;;;;;;5.10;3.78;;;22.60;67.60;;;;;;5008104;28;20233;-82
2023/04/29 10:55:58;;;;;;;4.32;3.45;;;22.50;66.90;;;;;;4995321;28;20238;-81
2023/04/29 10:58:35;;;;;;;7.00;3.80;;;22.50;65.80;;;;;;5016416;28;20723;-81
2023/04/29 11:01:06;;;;;;;5.30;3.97;;;22.30;65.50;;;;;;4996898;28;20352;-81
2023/04/29 11:03:47;;;;;;;7.15;4.45;;;22.30;66.10;;;;;;5013051;28;20286;-82
2023/04/29 11:06:14;;;;;;;5.22;3.60;;;22.20;66.30;;;;;;5009946;28;20304;-81
2023/04/29 11:08:42;;;;;;;7.97;4.32;;;22.10;68.20;;;;;;5000035;28;20329;-81
2023/04/29 11:11:09;;;;;;;6.97;4.70;;;22.20;66.90;;;;;;5009712;28;20316;-82
2023/04/29 11:13:39;;;;;;;7.32;4.35;;;22.10;66.80;;;;;;5008836;28;20308;-81
2023/04/29 11:16:08;;;;;;;7.03;5.13;;;22.20;66.80;;;;;;5005494;28;20229;-81
2023/04/29 11:18:36;;;;;;;6.05;4.65;;;22.20;66.60;;;;;;5013510;28;20229;-81
2023/04/29 11:21:12;;;;;;;6.47;4.22;;;22.10;66.60;;;;;;5005157;28;20226;-83
2023/04/29 11:23:41;;;;;;;6.85;4.90;;;22.10;65.70;;;;;;5009212;28;20239;-81
2023/04/29 11:26:07;;;;;;;6.97;4.93;;;22.10;65.30;;;;;;5010930;28;20848;-81
2023/04/29 11:28:34;;;;;;;6.88;5.13;;;22.00;66.00;;;;;;5009158;28;20263;-81
2023/04/29 11:31:02;;;;;;;4.97;4.05;;;22.00;65.50;;;;;;5015283;28;20229;-81
2023/04/29 11:33:32;;;;;;;7.25;4.80;;;22.00;65.60;;;;;;5013401;28;20226;-82
2023/04/29 11:36:00;;;;;;;7.60;4.90;;;21.90;65.00;;;;;;5006419;28;21698;-82
2023/04/29 11:38:27;;;;;;;7.32;4.97;;;21.80;64.60;;;;;;4994914;28;20226;-81
2023/04/29 11:40:55;;;;;;;7.53;6.03;;;21.60;65.00;;;;;;4995509;28;20233;-81
2023/04/29 11:43:23;;;;;;;8.13;6.10;;;21.50;65.90;;;;;;5008390;28;20234;-81
2023/04/29 11:45:50;;;;;;;7.35;5.97;;;21.40;66.40;;;;;;4994083;28;20221;-79
2023/04/29 11:48:18;;;;;;;8.07;5.90;;;21.40;65.80;;;;;;5014440;28;20224;-79
2023/04/29 11:50:48;;;;;;;7.63;5.05;;;21.40;66.40;;;;;;5018989;28;20221;-80
2023/04/29 11:53:15;;;;;;;6.72;4.63;;;21.50;67.10;;;;;;5011999;28;20235;-79
2023/04/29 11:55:42;;;;;;;5.00;4.50;;;21.60;65.80;;;;;;5019125;28;20237;-79
2023/04/29 11:58:09;;;;;;;7.90;4.97;;;21.60;65.10;;;;;;5015406;28;20268;-79
2023/04/29 12:00:36;;;;;;;8.02;4.65;;;21.50;64.10;;;;;;5018112;28;20263;-79
2023/04/29 12:03:12;;;;;;;6.78;4.80;;;21.40;64.30;;;;;;5016788;28;20737;-79
2023/04/29 12:05:40;;;;;;;5.45;4.03;;;21.10;64.50;;;;;;5046740;23;20228;-82
2023/04/29 12:08:08;;;;;;;6.45;5.00;;;21.00;66.70;;;;;;5074893;28;20219;-81
2023/04/29 12:10:36;;;;;;;7.18;4.78;;;20.90;65.60;;;;;;5081790;28;20233;-82
2023/04/29 12:13:03;;;;;;;6.63;4.72;;;20.90;64.20;;;;;;5074979;28;20244;-82
2023/04/29 12:15:31;;;;;;;8.50;5.38;;;20.90;64.60;;;;;;5078703;28;20223;-82
2023/04/29 12:17:58;;;;;;;5.85;5.03;;;20.90;65.00;;;;;;5075979;28;20595;-81
2023/04/29 12:20:24;;;;;;;12.05;10.65;;;21.00;65.10;;;;;;5090566;28;20598;-81
2023/04/29 12:22:51;;;;;;;7.07;4.70;;;20.90;64.60;;;;;;5092220;28;20216;-82
2023/04/29 12:25:21;;;;;;;8.57;5.70;;;20.90;62.70;;;;;;5070910;28;20223;-82
2023/04/29 12:27:48;;;;;;;5.75;4.15;;;20.80;63.20;;;;;;5087371;28;20246;-82
2023/04/29 12:30:15;;;;;;;6.05;4.30;;;20.60;63.10;;;;;;5094275;28;20302;-81
2023/04/29 12:32:42;;;;;;;5.72;4.43;;;20.40;63.70;;;;;;5091902;28;20390;-81
2023/04/29 12:35:16;;;;;;;5.93;4.13;;;20.30;64.00;;;;;;5060909;28;20245;-82
2023/04/29 12:37:42;;;;;;;6.18;5.20;;;20.20;64.30;;;;;;5099058;28;20214;-80
2023/04/29 12:40:14;;;;;;;6.22;4.68;;;20.10;65.00;;;;;;5079336;28;20309;-80
2023/04/29 12:42:45;;;;;;;6.72;4.65;;;20.00;65.00;;;;;;5089961;28;20250;-81
2023/04/29 12:45:28;;;;;;;6.07;5.00;;;19.80;64.90;;;;;;5071869;28;20250;-80
2023/04/29 12:47:57;;;;;;;5.90;4.68;;;19.70;65.80;;;;;;5074836;28;20226;-79
2023/04/29 12:50:30;;;;;;;5.72;4.35;;;19.60;65.50;;;;;;5084128;28;20607;-80
2023/04/29 12:52:57;;;;;;;13.30;10.57;;;19.40;65.50;;;;;;5089010;28;20731;-80